KPIB/PIB METAR and TAF weather

Enter ICAO airport designator
Station Type Date Time Source
KPIB METAR 2020/09/23 17:56 UTC NOAA

KPIB 231756Z AUTO 13009KT 10SM BKN023 BKN028 BKN036 27/22 A2993 RMK AO2 SLP133 T02670222 10267 20183 58018


Station Type Date Time Source
KPIB Decoded METAR 2020/09/23 17:56 UTC NOAA

Hattiesburg/Laurel, Hattiesburg-Laurel Regional Airport, MS, United States (KPIB) 31-28N 089-20W
Sep 23, 2020 - 01:56 PM EDT / 2020.09.23 1756 UTC
Wind: from the SE (130 degrees) at 10 MPH (9 KT):0
Visibility: 10 mile(s):0
Sky conditions: mostly cloudy
Temperature: 80.1 F (26.7 C)
Dew Point: 72.0 F (22.2 C)
Relative Humidity: 76%
Pressure (altimeter): 29.93 in. Hg (1013 hPa)
Pressure tendency: 0.05 inches (1.8 hPa) lower than three hours ago
ob: KPIB 231756Z AUTO 13009KT 10SM BKN023 BKN028 BKN036 27/22 A2993 RMK AO2 SLP133 T02670222 10267 20183 58018
cycle: 18

Station Type Date Time Source
KPIB TAF 2020/09/23 18:06 UTC NOAA

TAF KPIB 231805Z 2318/2418 12010G20KT P6SM VCSH BKN024 BKN030 OVC035
FM240100 14011G20KT 6SM -SHRA VCTS BKN006 BKN015CB OVC050
FM241500 22011KT P6SM BKN015 BKN025

Example: see airport list